createdAt,value
2023-03-19T00:00:55.183Z,3.93
2023-03-19T00:03:22.157Z,3.96
2023-03-19T00:05:51.519Z,4.01
2023-03-19T00:08:18.178Z,4.09
2023-03-19T00:10:46.841Z,4.14
2023-03-19T00:13:13.625Z,4.15
2023-03-19T00:15:44.519Z,4.17
2023-03-19T00:18:12.460Z,4.21
2023-03-19T00:20:39.242Z,4.22
2023-03-19T00:23:11.678Z,4.21
2023-03-19T00:25:38.671Z,4.25
2023-03-19T00:28:12.791Z,4.28
2023-03-19T00:30:46.932Z,4.32
2023-03-19T00:33:13.949Z,4.39
2023-03-19T00:35:40.964Z,4.44
2023-03-19T00:38:08.393Z,4.43
2023-03-19T00:40:36.648Z,4.45
2023-03-19T00:43:03.485Z,4.44
2023-03-19T00:45:33.011Z,4.41
2023-03-19T00:48:00.809Z,4.42
2023-03-19T00:50:27.635Z,4.41
2023-03-19T00:52:56.657Z,4.42
2023-03-19T00:55:28.948Z,4.39
2023-03-19T00:58:02.555Z,4.29
2023-03-19T01:00:29.433Z,4.24
2023-03-19T01:02:56.420Z,4.25
2023-03-19T01:05:23.469Z,4.18
2023-03-19T01:07:53.491Z,4.18
2023-03-19T01:10:21.580Z,4.22
2023-03-19T01:12:49.357Z,4.22
2023-03-19T01:15:16.794Z,4.17
2023-03-19T01:17:43.590Z,4.13
2023-03-19T01:20:13.394Z,4.11
2023-03-19T01:22:43.753Z,4.12
2023-03-19T01:25:10.789Z,4.13
2023-03-19T01:27:38.357Z,4.16
2023-03-19T01:30:07.027Z,4.19
2023-03-19T01:32:52.901Z,4.19
2023-03-19T01:35:31.236Z,4.15
2023-03-19T01:37:58.366Z,4.13
2023-03-19T01:40:25.314Z,4.14
2023-03-19T01:42:56.834Z,4.13
2023-03-19T01:45:42.617Z,4.03
2023-03-19T01:48:27.900Z,4.07
2023-03-19T01:51:03.044Z,4.08
2023-03-19T01:53:52.645Z,4.06
2023-03-19T01:56:39.540Z,4.03
2023-03-19T01:59:22.680Z,4.07
2023-03-19T02:02:35.292Z,4.10
2023-03-19T02:05:13.971Z,4.10
2023-03-19T02:07:42.613Z,4.08
2023-03-19T02:10:11.278Z,4.03
2023-03-19T02:12:38.880Z,4.06
2023-03-19T02:15:11.313Z,4.13
2023-03-19T02:17:39.377Z,4.14
2023-03-19T02:20:21.677Z,4.12
2023-03-19T02:22:53.478Z,4.13
2023-03-19T02:25:21.842Z,4.14
2023-03-19T02:27:48.724Z,4.13
2023-03-19T02:30:26.550Z,4.13
2023-03-19T02:32:54.269Z,4.10
2023-03-19T02:35:24.393Z,4.08
2023-03-19T02:37:56.338Z,4.06
2023-03-19T02:40:24.294Z,4.04
2023-03-19T02:42:51.505Z,4.02
2023-03-19T02:45:18.250Z,3.96
2023-03-19T02:47:46.573Z,3.92
2023-03-19T02:50:13.253Z,3.92
2023-03-19T02:52:40.145Z,3.92
2023-03-19T02:55:07.370Z,3.93
2023-03-19T02:57:34.912Z,3.95
2023-03-19T03:00:07.239Z,3.95
2023-03-19T03:02:34.702Z,3.90
2023-03-19T03:05:02.060Z,3.87
2023-03-19T03:07:29.290Z,3.93
2023-03-19T03:09:56.272Z,3.95
2023-03-19T03:12:23.077Z,3.97
2023-03-19T03:14:55.033Z,3.97
2023-03-19T03:17:22.162Z,3.95
2023-03-19T03:19:49.078Z,3.98
2023-03-19T03:22:16.516Z,3.98
2023-03-19T03:24:43.729Z,4.00
2023-03-19T03:27:21.715Z,3.98
2023-03-19T03:29:48.724Z,3.97
2023-03-19T03:32:15.605Z,3.97
2023-03-19T03:34:45.675Z,4.01
2023-03-19T03:37:12.719Z,4.04
2023-03-19T03:39:40.176Z,4.05
2023-03-19T03:42:07.561Z,4.04
2023-03-19T03:44:35.640Z,4.04
2023-03-19T03:47:02.956Z,4.00
2023-03-19T03:49:35.383Z,4.00
2023-03-19T03:52:02.285Z,4.01
2023-03-19T03:54:29.287Z,4.03
2023-03-19T03:56:56.246Z,3.98
2023-03-19T03:59:28.538Z,3.91
2023-03-19T04:01:56.683Z,3.88
2023-03-19T04:04:23.753Z,3.85
2023-03-19T04:06:54.885Z,3.84
2023-03-19T04:09:41.632Z,3.86
2023-03-19T04:12:08.891Z,3.88
2023-03-19T04:14:41.473Z,3.90
2023-03-19T04:17:13.388Z,3.94
2023-03-19T04:19:40.297Z,3.97
2023-03-19T04:22:10.656Z,4.01
2023-03-19T04:24:42.846Z,4.02
2023-03-19T04:27:10.572Z,3.96
2023-03-19T04:29:43.352Z,3.96
2023-03-19T04:32:10.744Z,4.01
2023-03-19T04:34:42.560Z,4.04
2023-03-19T04:37:09.939Z,4.04
2023-03-19T04:39:40.550Z,3.97
2023-03-19T04:42:08.164Z,3.99
2023-03-19T04:44:43.091Z,3.95
2023-03-19T04:47:17.136Z,3.98
2023-03-19T04:49:54.344Z,4.06
2023-03-19T04:52:27.633Z,4.08
2023-03-19T04:54:55.150Z,4.06
2023-03-19T04:57:22.238Z,4.02
2023-03-19T04:59:50.931Z,4.03
2023-03-19T05:02:18.460Z,3.99
2023-03-19T05:04:45.497Z,4.02
2023-03-19T05:07:15.457Z,3.96
2023-03-19T05:09:44.377Z,3.94
2023-03-19T05:12:12.979Z,3.97
2023-03-19T05:14:47.566Z,3.98
2023-03-19T05:17:19.576Z,3.95
2023-03-19T05:19:58.449Z,3.98
2023-03-19T05:22:28.348Z,4.01
2023-03-19T05:25:09.415Z,4.02
2023-03-19T05:27:43.375Z,4.05
2023-03-19T05:30:19.390Z,4.06
2023-03-19T05:33:14.356Z,4.10
2023-03-19T05:35:52.465Z,4.16
2023-03-19T05:38:31.303Z,4.21
2023-03-19T05:41:05.856Z,4.25
2023-03-19T05:43:50.718Z,4.26
2023-03-19T05:46:33.478Z,4.26
2023-03-19T05:49:03.677Z,4.29
2023-03-19T05:51:34.930Z,4.39
2023-03-19T05:54:05.416Z,4.45
2023-03-19T05:56:37.496Z,4.41
2023-03-19T05:59:38.408Z,4.35
2023-03-19T06:02:19.564Z,4.35
2023-03-19T06:04:52.373Z,4.39
2023-03-19T06:07:24.398Z,4.44
2023-03-19T06:09:54.369Z,4.43
2023-03-19T06:12:24.388Z,4.42
2023-03-19T06:15:23.431Z,4.44
2023-03-19T06:18:12.339Z,4.49
2023-03-19T06:20:56.437Z,4.51
2023-03-19T06:31:27.905Z,4.64
2023-03-19T06:34:01.495Z,4.66
2023-03-19T06:36:38.650Z,4.72
2023-03-19T06:39:05.960Z,4.77
2023-03-19T06:41:32.936Z,4.78
2023-03-19T06:44:09.282Z,4.77
2023-03-19T06:46:37.834Z,4.81
2023-03-19T06:49:04.673Z,4.84
2023-03-19T06:51:42.060Z,4.82
2023-03-19T06:54:08.853Z,4.79
2023-03-19T06:56:35.785Z,4.82
2023-03-19T06:59:03.186Z,4.87
2023-03-19T07:01:35.063Z,4.88
2023-03-19T07:04:02.299Z,4.95
2023-03-19T07:06:29.723Z,4.93
2023-03-19T07:08:56.705Z,4.91
2023-03-19T07:11:23.573Z,4.93
2023-03-19T07:13:52.312Z,4.94
2023-03-19T07:24:11.716Z,5.08
2023-03-19T07:26:39.099Z,5.16
2023-03-19T07:29:05.934Z,5.19
2023-03-19T07:31:32.997Z,5.15
2023-03-19T07:34:05.766Z,5.12
2023-03-19T07:36:33.093Z,5.07
2023-03-19T07:39:00.324Z,5.12
2023-03-19T07:41:27.714Z,5.20
2023-03-19T07:43:59.716Z,5.28
2023-03-19T07:46:33.538Z,5.35
2023-03-19T07:49:00.385Z,5.43
2023-03-19T07:51:27.216Z,5.48
2023-03-19T07:53:55.348Z,5.57
2023-03-19T07:56:22.599Z,5.66
2023-03-19T07:58:49.682Z,5.76
2023-03-19T08:01:18.376Z,5.78
2023-03-19T08:03:47.998Z,5.69
2023-03-19T08:06:14.761Z,5.69
2023-03-19T08:08:42.269Z,5.73
2023-03-19T08:11:14.477Z,5.77
2023-03-19T08:13:42.105Z,5.89
2023-03-19T08:16:13.112Z,5.99
2023-03-19T08:18:45.713Z,5.97
2023-03-19T08:21:12.531Z,6.03
2023-03-19T08:23:40.439Z,6.07
2023-03-19T08:26:07.896Z,6.16
2023-03-19T08:28:39.283Z,6.27
2023-03-19T08:31:09.931Z,6.33
2023-03-19T08:33:41.895Z,6.34
2023-03-19T08:36:10.167Z,6.40
2023-03-19T08:38:37.292Z,6.44
2023-03-19T08:41:05.685Z,6.50
2023-03-19T08:43:33.060Z,6.57
2023-03-19T08:46:00.206Z,6.64
2023-03-19T08:48:27.199Z,6.71
2023-03-19T08:50:55.583Z,6.77
2023-03-19T08:53:23.221Z,6.84
2023-03-19T08:55:57.227Z,6.82
2023-03-19T08:58:24.233Z,6.67
2023-03-19T09:00:51.414Z,6.61
2023-03-19T09:03:19.307Z,6.72
2023-03-19T09:05:47.721Z,6.76
2023-03-19T09:08:35.047Z,6.85
2023-03-19T09:11:06.861Z,6.98
2023-03-19T09:13:33.987Z,7.07
2023-03-19T09:16:00.937Z,7.09
2023-03-19T09:18:29.873Z,7.09
2023-03-19T09:20:57.607Z,7.07
2023-03-19T09:23:24.460Z,7.01
2023-03-19T09:25:54.942Z,7.12
2023-03-19T09:28:22.794Z,7.16
2023-03-19T09:30:49.893Z,7.16
2023-03-19T09:33:17.149Z,7.19
2023-03-19T09:35:48.157Z,7.28
2023-03-19T09:38:14.963Z,7.36
2023-03-19T09:40:43.473Z,7.42
2023-03-19T09:43:17.375Z,7.44
2023-03-19T09:45:45.387Z,7.41
2023-03-19T09:48:14.144Z,7.41
2023-03-19T09:50:41.025Z,7.41
2023-03-19T09:53:12.276Z,7.46
2023-03-19T09:55:43.795Z,7.60
2023-03-19T09:58:15.893Z,7.72
2023-03-19T10:00:43.844Z,7.85
2023-03-19T10:03:37.788Z,7.92
2023-03-19T10:06:08.801Z,8.03
2023-03-19T10:08:40.050Z,8.14
2023-03-19T10:11:29.368Z,8.20
2023-03-19T10:13:58.901Z,8.17
2023-03-19T10:16:27.221Z,8.15
2023-03-19T10:18:56.531Z,8.12
2023-03-19T10:21:23.740Z,8.22
2023-03-19T10:23:58.060Z,8.40
2023-03-19T10:26:29.168Z,8.55
2023-03-19T10:29:09.519Z,8.61
2023-03-19T10:31:42.017Z,8.68
2023-03-19T10:34:12.591Z,8.70
2023-03-19T10:36:40.078Z,8.81
2023-03-19T10:39:07.301Z,8.93
2023-03-19T10:41:52.632Z,9.03
2023-03-19T10:44:25.710Z,9.07
2023-03-19T10:46:52.511Z,9.11
2023-03-19T10:49:24.319Z,9.20
2023-03-19T10:51:56.095Z,9.32
2023-03-19T10:54:23.770Z,9.28
2023-03-19T10:56:50.692Z,9.16
2023-03-19T10:59:38.967Z,9.10
2023-03-19T11:02:16.386Z,9.04
2023-03-19T11:04:43.414Z,8.99
2023-03-19T11:07:11.355Z,8.90
2023-03-19T11:09:48.672Z,8.97
2023-03-19T11:12:33.382Z,9.03
2023-03-19T11:15:03.104Z,9.13
2023-03-19T11:17:39.779Z,9.28
2023-03-19T11:20:10.798Z,9.36
2023-03-19T11:22:37.938Z,9.32
2023-03-19T11:25:15.075Z,9.18
2023-03-19T11:27:43.009Z,9.15
2023-03-19T11:30:20.903Z,9.01
2023-03-19T11:32:47.866Z,8.86
2023-03-19T11:35:15.477Z,8.86
2023-03-19T11:37:54.015Z,9.03
2023-03-19T11:40:25.298Z,9.15
2023-03-19T11:43:10.825Z,9.17
2023-03-19T11:45:48.925Z,9.13
2023-03-19T11:48:19.239Z,9.15
2023-03-19T11:50:54.698Z,9.22
2023-03-19T11:53:26.925Z,9.26
2023-03-19T11:55:56.977Z,9.26
2023-03-19T11:58:37.977Z,9.21
2023-03-19T12:01:11.681Z,9.19
2023-03-19T12:03:57.316Z,9.22
2023-03-19T12:06:29.917Z,9.29
2023-03-19T12:08:59.912Z,9.30
2023-03-19T12:11:30.521Z,9.19
2023-03-19T12:13:57.251Z,9.12
2023-03-19T12:16:29.113Z,9.04
2023-03-19T12:19:01.953Z,8.92
2023-03-19T12:21:29.186Z,8.85
2023-03-19T12:24:23.066Z,8.65
2023-03-19T12:26:52.873Z,8.48
2023-03-19T12:29:23.946Z,8.41
2023-03-19T12:31:50.924Z,8.43
2023-03-19T12:34:35.965Z,8.40
2023-03-19T12:37:25.512Z,8.34
2023-03-19T12:40:01.328Z,8.24
2023-03-19T12:42:29.137Z,8.17
2023-03-19T12:44:56.523Z,8.09
2023-03-19T12:47:33.479Z,8.06
2023-03-19T12:50:08.699Z,7.99
2023-03-19T12:52:47.506Z,7.91
2023-03-19T12:55:18.574Z,7.88
2023-03-19T12:57:53.772Z,7.83
2023-03-19T13:00:28.162Z,7.84
2023-03-19T13:02:58.148Z,7.89
2023-03-19T13:05:43.667Z,7.93
2023-03-19T13:08:11.480Z,7.89
2023-03-19T13:10:38.544Z,7.89
2023-03-19T13:13:24.373Z,7.89
2023-03-19T13:15:53.956Z,7.91
2023-03-19T13:18:41.268Z,7.90
2023-03-19T13:21:08.001Z,7.83
2023-03-19T13:23:36.408Z,7.84
2023-03-19T13:26:08.002Z,7.89
2023-03-19T13:28:36.150Z,7.83
2023-03-19T13:31:19.335Z,7.82
2023-03-19T13:33:54.001Z,7.87
2023-03-19T13:36:21.025Z,7.92
2023-03-19T13:38:53.779Z,7.93
2023-03-19T13:41:33.067Z,7.93
2023-03-19T13:44:01.121Z,7.91
2023-03-19T13:46:30.948Z,7.88
2023-03-19T13:49:16.214Z,7.83
2023-03-19T13:51:48.573Z,7.77
2023-03-19T13:54:15.791Z,7.69
2023-03-19T13:56:54.717Z,7.66
2023-03-19T13:59:26.365Z,7.53
2023-03-19T14:01:53.371Z,7.57
2023-03-19T14:04:27.299Z,7.62
2023-03-19T14:07:10.460Z,7.65
2023-03-19T14:09:37.751Z,7.63
2023-03-19T14:12:11.227Z,7.53
2023-03-19T14:14:39.452Z,7.48
2023-03-19T14:17:27.697Z,7.44
2023-03-19T14:19:54.633Z,7.42
2023-03-19T14:22:40.924Z,7.41
2023-03-19T14:25:11.092Z,7.33
2023-03-19T14:27:38.790Z,7.32
2023-03-19T14:30:21.654Z,7.31
2023-03-19T14:32:48.665Z,7.31
2023-03-19T14:35:16.384Z,7.29
2023-03-19T14:37:48.477Z,7.29
2023-03-19T14:40:16.423Z,7.26
2023-03-19T14:42:47.460Z,7.19
2023-03-19T14:45:46.542Z,7.14
2023-03-19T14:48:16.593Z,7.06
2023-03-19T14:51:03.327Z,7.01
2023-03-19T14:53:52.048Z,6.93
2023-03-19T14:56:20.880Z,6.88
2023-03-19T14:58:48.660Z,6.88
2023-03-19T15:01:15.567Z,6.87
2023-03-19T15:03:47.612Z,6.93
2023-03-19T15:06:14.961Z,6.92
2023-03-19T15:08:42.480Z,6.87
2023-03-19T15:11:17.936Z,6.78
2023-03-19T15:13:50.679Z,6.74
2023-03-19T15:16:26.593Z,6.72
2023-03-19T15:18:53.979Z,6.72
2023-03-19T15:21:21.225Z,6.74
2023-03-19T15:23:49.496Z,6.75
2023-03-19T15:26:18.034Z,6.75
2023-03-19T15:28:49.447Z,6.70
2023-03-19T15:31:38.277Z,6.60
2023-03-19T15:34:21.492Z,6.59
2023-03-19T15:36:58.490Z,6.61
2023-03-19T15:39:26.700Z,6.67
2023-03-19T15:42:02.006Z,6.65
2023-03-19T15:44:33.856Z,6.61
2023-03-19T15:47:01.211Z,6.57
2023-03-19T15:49:29.088Z,6.53
2023-03-19T15:51:57.999Z,6.53
2023-03-19T15:54:26.955Z,6.53
2023-03-19T15:56:54.263Z,6.52
2023-03-19T15:59:21.596Z,6.53
2023-03-19T16:01:50.393Z,6.57
2023-03-19T16:04:20.422Z,6.56
2023-03-19T16:06:47.911Z,6.54
2023-03-19T16:09:24.862Z,6.55
2023-03-19T16:11:52.024Z,6.53
2023-03-19T16:14:29.803Z,6.47
2023-03-19T16:17:02.112Z,6.47
2023-03-19T16:19:40.549Z,6.48
2023-03-19T16:22:11.949Z,6.41
2023-03-19T16:24:42.275Z,6.37
2023-03-19T16:27:13.832Z,6.36
2023-03-19T16:29:41.704Z,6.38
2023-03-19T16:32:10.313Z,6.36
2023-03-19T16:34:37.689Z,6.33
2023-03-19T16:37:27.715Z,6.32
2023-03-19T16:39:59.640Z,6.34
2023-03-19T16:42:37.380Z,6.38
2023-03-19T16:45:17.157Z,6.37
2023-03-19T16:47:56.462Z,6.38
2023-03-19T16:50:31.317Z,6.39
2023-03-19T16:52:59.073Z,6.43
2023-03-19T16:55:27.807Z,6.48
2023-03-19T16:58:01.402Z,6.49
2023-03-19T17:00:31.741Z,6.44
2023-03-19T17:02:59.684Z,6.40
2023-03-19T17:05:28.686Z,6.38
2023-03-19T17:07:57.115Z,6.33
2023-03-19T17:10:25.234Z,6.35
2023-03-19T17:12:52.478Z,6.39
2023-03-19T17:15:19.821Z,6.38
2023-03-19T17:17:47.839Z,6.32
2023-03-19T17:20:15.965Z,6.18
2023-03-19T17:22:47.624Z,6.18
2023-03-19T17:25:21.085Z,6.19
2023-03-19T17:27:53.637Z,6.20
2023-03-19T17:30:21.962Z,6.22
2023-03-19T17:32:51.134Z,6.21
2023-03-19T17:35:21.693Z,6.24
2023-03-19T17:37:51.761Z,6.24
2023-03-19T17:40:22.628Z,6.25
2023-03-19T17:42:52.656Z,6.26
2023-03-19T17:45:29.675Z,6.28
2023-03-19T17:48:04.733Z,6.26
2023-03-19T17:50:33.953Z,6.22
2023-03-19T17:53:05.693Z,6.13
2023-03-19T17:55:36.660Z,6.13
2023-03-19T17:58:06.638Z,6.14
2023-03-19T18:00:39.099Z,6.08
2023-03-19T18:03:09.266Z,6.05
2023-03-19T18:05:38.670Z,6.01
2023-03-19T18:08:10.712Z,6.03
2023-03-19T18:10:41.976Z,6.07
2023-03-19T18:13:10.655Z,6.05
2023-03-19T18:15:40.314Z,6.03
2023-03-19T18:18:13.624Z,5.99
2023-03-19T18:20:42.719Z,6.00
2023-03-19T18:31:26.344Z,5.97
2023-03-19T18:33:54.368Z,5.98
2023-03-19T18:36:24.441Z,5.91
2023-03-19T18:38:54.582Z,5.89
2023-03-19T18:41:22.170Z,5.85
2023-03-19T18:44:04.681Z,5.77
2023-03-19T18:46:32.303Z,5.76
2023-03-19T18:49:27.607Z,5.75
2023-03-19T18:52:02.768Z,5.78
2023-03-19T18:54:30.787Z,5.80
2023-03-19T18:56:58.601Z,5.74
2023-03-19T18:59:26.690Z,5.70
2023-03-19T19:01:57.530Z,5.64
2023-03-19T19:04:24.712Z,5.61
2023-03-19T19:06:52.015Z,5.62
2023-03-19T19:09:19.429Z,5.62
2023-03-19T19:11:47.644Z,5.64
2023-03-19T19:14:21.511Z,5.64
2023-03-19T19:16:48.447Z,5.59
2023-03-19T19:19:17.434Z,5.55
2023-03-19T19:21:44.805Z,5.52
2023-03-19T19:24:14.307Z,5.53
2023-03-19T19:26:41.819Z,5.57
2023-03-19T19:29:09.380Z,5.61
2023-03-19T19:31:36.711Z,5.63
2023-03-19T19:34:03.844Z,5.61
2023-03-19T19:36:32.561Z,5.60
2023-03-19T19:38:59.550Z,5.56
2023-03-19T19:41:26.402Z,5.60
2023-03-19T19:43:55.274Z,5.59
2023-03-19T19:46:22.938Z,5.61
2023-03-19T19:48:49.941Z,5.62
2023-03-19T19:51:21.184Z,5.61
2023-03-19T19:53:48.712Z,5.61
2023-03-19T19:56:16.579Z,5.61
2023-03-19T19:58:43.813Z,5.62
2023-03-19T20:01:18.011Z,5.61
2023-03-19T20:03:45.619Z,5.61
2023-03-19T20:06:12.556Z,5.58
2023-03-19T20:08:39.636Z,5.56
2023-03-19T20:11:15.722Z,5.54
2023-03-19T20:13:43.921Z,5.57
2023-03-19T20:16:13.236Z,5.60
2023-03-19T20:18:43.219Z,5.59
2023-03-19T20:21:15.507Z,5.58
2023-03-19T20:23:43.417Z,5.55
2023-03-19T20:26:12.561Z,5.54
2023-03-19T20:28:40.553Z,5.54
2023-03-19T20:31:08.957Z,5.56
2023-03-19T20:33:36.803Z,5.56
2023-03-19T20:36:05.212Z,5.61
2023-03-19T20:38:36.215Z,5.63
2023-03-19T20:41:03.101Z,5.68
2023-03-19T20:43:31.336Z,5.70
2023-03-19T20:45:59.057Z,5.74
2023-03-19T20:48:26.764Z,5.68
2023-03-19T20:50:54.119Z,5.65
2023-03-19T20:53:21.389Z,5.62
2023-03-19T20:55:48.793Z,5.60
2023-03-19T20:58:25.137Z,5.60
2023-03-19T21:00:53.182Z,5.54
2023-03-19T21:03:21.962Z,5.49
2023-03-19T21:05:54.844Z,5.49
2023-03-19T21:08:26.995Z,5.46
2023-03-19T21:10:53.749Z,5.45
2023-03-19T21:13:27.341Z,5.51
2023-03-19T21:15:54.713Z,5.51
2023-03-19T21:18:21.536Z,5.48
2023-03-19T21:20:53.323Z,5.50
2023-03-19T21:23:29.454Z,5.56
2023-03-19T21:25:57.230Z,5.57
2023-03-19T21:28:28.312Z,5.55
2023-03-19T21:30:55.885Z,5.56
2023-03-19T21:33:30.422Z,5.60
2023-03-19T21:35:57.479Z,5.59
2023-03-19T21:38:24.452Z,5.60
2023-03-19T21:40:51.707Z,5.62
2023-03-19T21:43:22.440Z,5.56
2023-03-19T21:45:51.260Z,5.47
2023-03-19T21:48:33.854Z,5.39
2023-03-19T21:51:05.897Z,5.39
2023-03-19T21:53:32.857Z,5.38
2023-03-19T21:56:00.361Z,5.33
2023-03-19T21:58:28.876Z,5.30
2023-03-19T22:01:01.377Z,5.29
2023-03-19T22:03:28.972Z,5.28
2023-03-19T22:05:56.322Z,5.24
2023-03-19T22:08:23.717Z,5.19
2023-03-19T22:10:57.280Z,5.22
2023-03-19T22:13:37.190Z,5.24
2023-03-19T22:16:08.348Z,5.18
2023-03-19T22:18:36.003Z,5.09
2023-03-19T22:21:03.080Z,5.11
2023-03-19T22:23:30.036Z,5.08
2023-03-19T22:25:57.958Z,5.04
2023-03-19T22:28:30.817Z,5.01
2023-03-19T22:30:57.950Z,5.00
2023-03-19T22:33:25.798Z,4.96
2023-03-19T22:35:53.010Z,4.89
2023-03-19T22:38:21.103Z,4.86
2023-03-19T22:40:48.889Z,4.87
2023-03-19T22:43:22.521Z,4.86
2023-03-19T22:45:51.836Z,4.82
2023-03-19T22:48:19.619Z,4.77
2023-03-19T22:50:46.512Z,4.78
2023-03-19T22:53:21.174Z,4.80
2023-03-19T22:55:48.192Z,4.78
2023-03-19T22:58:15.185Z,4.80
2023-03-19T23:00:43.444Z,4.85
2023-03-19T23:03:21.053Z,4.85
2023-03-19T23:05:53.025Z,4.79
2023-03-19T23:08:22.675Z,4.83
2023-03-19T23:10:50.671Z,4.88
2023-03-19T23:13:21.634Z,4.87
2023-03-19T23:15:52.211Z,4.86
2023-03-19T23:18:20.934Z,4.88
2023-03-19T23:20:47.912Z,4.89
2023-03-19T23:23:16.181Z,4.86
2023-03-19T23:25:43.516Z,4.79
2023-03-19T23:28:15.648Z,4.78
2023-03-19T23:30:42.721Z,4.78
2023-03-19T23:33:10.934Z,4.75
2023-03-19T23:35:38.240Z,4.69
2023-03-19T23:38:06.438Z,4.69
2023-03-19T23:40:36.411Z,4.72
2023-03-19T23:43:04.204Z,4.66
2023-03-19T23:45:34.005Z,4.59
2023-03-19T23:48:05.531Z,4.51
2023-03-19T23:50:43.419Z,4.43
2023-03-19T23:53:21.466Z,4.40
2023-03-19T23:55:49.522Z,4.35
2023-03-19T23:58:17.777Z,4.32
